sensor_id;sensor_type;location;lat;lon;timestamp;P1;durP1;ratioP1;P2;durP2;ratioP2
68614;SDS011;55593;51.994;5.882;2023-05-16T00:00:16;27.38;;;3.72;;
68614;SDS011;55593;51.994;5.882;2023-05-16T00:02:46;15.18;;;3.92;;
68614;SDS011;55593;51.994;5.882;2023-05-16T00:05:16;18.17;;;4.43;;
68614;SDS011;55593;51.994;5.882;2023-05-16T00:07:46;15.48;;;3.13;;
68614;SDS011;55593;51.994;5.882;2023-05-16T00:10:18;16.05;;;3.55;;
68614;SDS011;55593;51.994;5.882;2023-05-16T00:12:47;20.98;;;3.80;;
68614;SDS011;55593;51.994;5.882;2023-05-16T00:15:17;15.27;;;3.60;;
68614;SDS011;55593;51.994;5.882;2023-05-16T00:17:48;11.20;;;3.10;;
68614;SDS011;55593;51.994;5.882;2023-05-16T00:20:17;21.23;;;3.58;;
68614;SDS011;55593;51.994;5.882;2023-05-16T00:22:48;17.58;;;4.10;;
68614;SDS011;55593;51.994;5.882;2023-05-16T00:25:20;13.50;;;3.70;;
68614;SDS011;55593;51.994;5.882;2023-05-16T00:27:49;14.15;;;2.53;;
68614;SDS011;55593;51.994;5.882;2023-05-16T00:30:18;22.13;;;3.22;;
68614;SDS011;55593;51.994;5.882;2023-05-16T00:32:47;13.48;;;3.15;;
68614;SDS011;55593;51.994;5.882;2023-05-16T00:35:16;16.90;;;4.05;;
68614;SDS011;55593;51.994;5.882;2023-05-16T00:37:45;28.13;;;4.38;;
68614;SDS011;55593;51.994;5.882;2023-05-16T00:40:14;19.95;;;3.17;;
68614;SDS011;55593;51.994;5.882;2023-05-16T00:42:46;20.55;;;3.90;;
68614;SDS011;55593;51.994;5.882;2023-05-16T00:45:15;16.08;;;3.65;;
68614;SDS011;55593;51.994;5.882;2023-05-16T00:47:44;13.57;;;2.40;;
68614;SDS011;55593;51.994;5.882;2023-05-16T00:50:13;23.75;;;3.88;;
68614;SDS011;55593;51.994;5.882;2023-05-16T00:52:42;20.70;;;3.25;;
68614;SDS011;55593;51.994;5.882;2023-05-16T00:55:13;22.05;;;4.25;;
68614;SDS011;55593;51.994;5.882;2023-05-16T00:57:42;18.52;;;3.65;;
68614;SDS011;55593;51.994;5.882;2023-05-16T01:00:14;13.50;;;3.03;;
68614;SDS011;55593;51.994;5.882;2023-05-16T01:02:44;18.30;;;3.10;;
68614;SDS011;55593;51.994;5.882;2023-05-16T01:05:16;19.08;;;4.15;;
68614;SDS011;55593;51.994;5.882;2023-05-16T01:07:45;20.08;;;3.00;;
68614;SDS011;55593;51.994;5.882;2023-05-16T01:10:14;10.57;;;2.50;;
68614;SDS011;55593;51.994;5.882;2023-05-16T01:12:44;22.15;;;3.60;;
68614;SDS011;55593;51.994;5.882;2023-05-16T01:15:23;21.98;;;3.13;;
68614;SDS011;55593;51.994;5.882;2023-05-16T01:17:58;18.33;;;2.88;;
68614;SDS011;55593;51.994;5.882;2023-05-16T01:20:32;15.82;;;3.15;;
68614;SDS011;55593;51.994;5.882;2023-05-16T01:23:11;21.48;;;4.20;;
68614;SDS011;55593;51.994;5.882;2023-05-16T01:25:55;20.30;;;3.35;;
68614;SDS011;55593;51.994;5.882;2023-05-16T01:28:27;16.48;;;3.30;;
68614;SDS011;55593;51.994;5.882;2023-05-16T01:30:57;20.00;;;3.13;;
68614;SDS011;55593;51.994;5.882;2023-05-16T01:33:26;13.00;;;3.40;;
68614;SDS011;55593;51.994;5.882;2023-05-16T01:35:57;13.90;;;3.17;;
68614;SDS011;55593;51.994;5.882;2023-05-16T01:38:29;18.63;;;3.92;;
68614;SDS011;55593;51.994;5.882;2023-05-16T01:41:05;19.95;;;3.70;;
68614;SDS011;55593;51.994;5.882;2023-05-16T01:43:41;16.52;;;2.97;;
68614;SDS011;55593;51.994;5.882;2023-05-16T01:46:13;19.40;;;3.67;;
68614;SDS011;55593;51.994;5.882;2023-05-16T01:48:46;15.65;;;3.17;;
68614;SDS011;55593;51.994;5.882;2023-05-16T01:51:20;17.10;;;3.17;;
68614;SDS011;55593;51.994;5.882;2023-05-16T01:53:51;16.80;;;3.08;;
68614;SDS011;55593;51.994;5.882;2023-05-16T01:56:20;15.95;;;3.10;;
68614;SDS011;55593;51.994;5.882;2023-05-16T01:58:52;16.17;;;2.80;;
68614;SDS011;55593;51.994;5.882;2023-05-16T02:01:23;19.65;;;3.08;;
68614;SDS011;55593;51.994;5.882;2023-05-16T02:03:52;21.27;;;3.67;;
68614;SDS011;55593;51.994;5.882;2023-05-16T02:06:21;16.73;;;3.00;;
68614;SDS011;55593;51.994;5.882;2023-05-16T02:08:52;18.52;;;3.42;;
68614;SDS011;55593;51.994;5.882;2023-05-16T02:11:21;16.05;;;2.95;;
68614;SDS011;55593;51.994;5.882;2023-05-16T02:13:53;26.17;;;4.90;;
68614;SDS011;55593;51.994;5.882;2023-05-16T02:16:22;15.77;;;3.28;;
68614;SDS011;55593;51.994;5.882;2023-05-16T02:18:51;22.17;;;3.17;;
68614;SDS011;55593;51.994;5.882;2023-05-16T02:21:20;16.70;;;3.13;;
68614;SDS011;55593;51.994;5.882;2023-05-16T02:23:50;21.90;;;2.92;;
68614;SDS011;55593;51.994;5.882;2023-05-16T02:26:19;21.40;;;3.33;;
68614;SDS011;55593;51.994;5.882;2023-05-16T02:28:48;13.85;;;2.92;;
68614;SDS011;55593;51.994;5.882;2023-05-16T02:31:27;14.93;;;3.15;;
68614;SDS011;55593;51.994;5.882;2023-05-16T02:33:56;20.10;;;3.40;;
68614;SDS011;55593;51.994;5.882;2023-05-16T02:36:26;22.70;;;3.13;;
68614;SDS011;55593;51.994;5.882;2023-05-16T02:38:55;20.63;;;3.85;;
68614;SDS011;55593;51.994;5.882;2023-05-16T02:41:24;13.45;;;3.08;;
68614;SDS011;55593;51.994;5.882;2023-05-16T02:43:53;15.30;;;2.83;;
68614;SDS011;55593;51.994;5.882;2023-05-16T02:46:24;20.48;;;3.58;;
68614;SDS011;55593;51.994;5.882;2023-05-16T02:48:57;18.95;;;3.05;;
68614;SDS011;55593;51.994;5.882;2023-05-16T02:51:27;21.02;;;3.85;;
68614;SDS011;55593;51.994;5.882;2023-05-16T02:53:56;21.40;;;2.85;;
68614;SDS011;55593;51.994;5.882;2023-05-16T02:56:25;15.82;;;3.33;;
68614;SDS011;55593;51.994;5.882;2023-05-16T02:58:55;23.58;;;3.55;;
68614;SDS011;55593;51.994;5.882;2023-05-16T03:01:26;15.90;;;2.90;;
68614;SDS011;55593;51.994;5.882;2023-05-16T03:03:57;15.55;;;2.95;;
68614;SDS011;55593;51.994;5.882;2023-05-16T03:06:26;20.55;;;4.10;;
68614;SDS011;55593;51.994;5.882;2023-05-16T03:08:58;16.45;;;4.00;;
68614;SDS011;55593;51.994;5.882;2023-05-16T03:11:27;17.23;;;2.70;;
68614;SDS011;55593;51.994;5.882;2023-05-16T03:13:56;16.60;;;2.83;;
68614;SDS011;55593;51.994;5.882;2023-05-16T03:16:29;25.52;;;4.50;;
68614;SDS011;55593;51.994;5.882;2023-05-16T03:18:58;24.77;;;3.60;;
68614;SDS011;55593;51.994;5.882;2023-05-16T03:21:28;15.57;;;2.65;;
68614;SDS011;55593;51.994;5.882;2023-05-16T03:23:57;20.30;;;3.25;;
68614;SDS011;55593;51.994;5.882;2023-05-16T03:26:26;16.00;;;3.50;;
68614;SDS011;55593;51.994;5.882;2023-05-16T03:28:55;18.33;;;3.53;;
68614;SDS011;55593;51.994;5.882;2023-05-16T03:31:24;16.67;;;2.65;;
68614;SDS011;55593;51.994;5.882;2023-05-16T03:33:56;14.45;;;3.13;;
68614;SDS011;55593;51.994;5.882;2023-05-16T03:36:25;16.30;;;3.10;;
68614;SDS011;55593;51.994;5.882;2023-05-16T03:38:55;17.13;;;2.70;;
68614;SDS011;55593;51.994;5.882;2023-05-16T03:41:24;16.20;;;2.95;;
68614;SDS011;55593;51.994;5.882;2023-05-16T03:43:53;18.30;;;3.42;;
68614;SDS011;55593;51.994;5.882;2023-05-16T03:46:22;15.50;;;3.05;;
68614;SDS011;55593;51.994;5.882;2023-05-16T03:48:51;18.00;;;2.85;;
68614;SDS011;55593;51.994;5.882;2023-05-16T03:51:23;21.50;;;3.10;;
68614;SDS011;55593;51.994;5.882;2023-05-16T03:53:52;22.30;;;3.25;;
68614;SDS011;55593;51.994;5.882;2023-05-16T03:56:22;22.75;;;3.50;;
68614;SDS011;55593;51.994;5.882;2023-05-16T03:58:51;19.40;;;3.10;;
68614;SDS011;55593;51.994;5.882;2023-05-16T04:01:21;16.48;;;3.08;;
68614;SDS011;55593;51.994;5.882;2023-05-16T04:03:50;18.27;;;3.22;;
68614;SDS011;55593;51.994;5.882;2023-05-16T04:06:19;16.13;;;4.10;;
68614;SDS011;55593;51.994;5.882;2023-05-16T04:08:51;16.00;;;2.72;;
68614;SDS011;55593;51.994;5.882;2023-05-16T04:11:20;16.17;;;2.65;;
68614;SDS011;55593;51.994;5.882;2023-05-16T04:13:49;22.63;;;2.95;;
68614;SDS011;55593;51.994;5.882;2023-05-16T04:16:18;15.45;;;3.00;;
68614;SDS011;55593;51.994;5.882;2023-05-16T04:18:47;12.00;;;2.80;;
68614;SDS011;55593;51.994;5.882;2023-05-16T04:21:16;16.65;;;2.78;;
68614;SDS011;55593;51.994;5.882;2023-05-16T04:23:45;17.63;;;3.05;;
68614;SDS011;55593;51.994;5.882;2023-05-16T04:26:17;20.80;;;3.78;;
68614;SDS011;55593;51.994;5.882;2023-05-16T04:28:47;12.95;;;3.00;;
68614;SDS011;55593;51.994;5.882;2023-05-16T04:31:16;18.77;;;4.60;;
68614;SDS011;55593;51.994;5.882;2023-05-16T04:33:46;14.02;;;2.60;;
68614;SDS011;55593;51.994;5.882;2023-05-16T04:36:15;16.77;;;2.75;;
68614;SDS011;55593;51.994;5.882;2023-05-16T04:38:44;23.25;;;3.10;;
68614;SDS011;55593;51.994;5.882;2023-05-16T04:41:14;12.32;;;2.72;;
68614;SDS011;55593;51.994;5.882;2023-05-16T04:43:45;16.17;;;2.88;;
68614;SDS011;55593;51.994;5.882;2023-05-16T04:46:14;16.35;;;3.15;;
68614;SDS011;55593;51.994;5.882;2023-05-16T04:48:43;18.27;;;2.83;;
68614;SDS011;55593;51.994;5.882;2023-05-16T04:51:13;16.27;;;2.97;;
68614;SDS011;55593;51.994;5.882;2023-05-16T04:53:44;14.32;;;3.72;;
68614;SDS011;55593;51.994;5.882;2023-05-16T04:56:13;15.50;;;2.85;;
68614;SDS011;55593;51.994;5.882;2023-05-16T04:58:42;15.07;;;3.25;;
68614;SDS011;55593;51.994;5.882;2023-05-16T05:01:14;15.27;;;2.85;;
68614;SDS011;55593;51.994;5.882;2023-05-16T05:03:43;17.80;;;3.60;;
68614;SDS011;55593;51.994;5.882;2023-05-16T05:06:12;17.52;;;3.17;;
68614;SDS011;55593;51.994;5.882;2023-05-16T05:08:41;21.75;;;3.13;;
68614;SDS011;55593;51.994;5.882;2023-05-16T05:11:10;14.77;;;2.67;;
68614;SDS011;55593;51.994;5.882;2023-05-16T05:13:39;20.98;;;3.40;;
68614;SDS011;55593;51.994;5.882;2023-05-16T05:16:09;15.55;;;3.13;;
68614;SDS011;55593;51.994;5.882;2023-05-16T05:18:40;13.75;;;2.83;;
68614;SDS011;55593;51.994;5.882;2023-05-16T05:21:10;11.95;;;2.70;;
68614;SDS011;55593;51.994;5.882;2023-05-16T05:23:39;17.48;;;3.00;;
68614;SDS011;55593;51.994;5.882;2023-05-16T05:26:08;14.90;;;3.72;;
68614;SDS011;55593;51.994;5.882;2023-05-16T05:28:37;15.63;;;3.55;;
68614;SDS011;55593;51.994;5.882;2023-05-16T05:31:06;17.77;;;3.33;;
68614;SDS011;55593;51.994;5.882;2023-05-16T05:33:35;16.95;;;3.50;;
68614;SDS011;55593;51.994;5.882;2023-05-16T05:36:08;17.33;;;3.10;;
68614;SDS011;55593;51.994;5.882;2023-05-16T05:38:37;22.70;;;4.82;;
68614;SDS011;55593;51.994;5.882;2023-05-16T05:41:06;14.07;;;3.53;;
68614;SDS011;55593;51.994;5.882;2023-05-16T05:43:36;11.38;;;3.40;;
68614;SDS011;55593;51.994;5.882;2023-05-16T05:46:06;12.02;;;3.33;;
68614;SDS011;55593;51.994;5.882;2023-05-16T05:48:35;18.55;;;2.97;;
68614;SDS011;55593;51.994;5.882;2023-05-16T05:51:04;12.55;;;2.97;;
68614;SDS011;55593;51.994;5.882;2023-05-16T05:53:36;16.77;;;3.70;;
68614;SDS011;55593;51.994;5.882;2023-05-16T05:56:05;13.23;;;2.85;;
68614;SDS011;55593;51.994;5.882;2023-05-16T05:58:34;17.42;;;3.45;;
68614;SDS011;55593;51.994;5.882;2023-05-16T06:01:03;12.00;;;2.70;;
68614;SDS011;55593;51.994;5.882;2023-05-16T06:03:32;13.30;;;3.05;;
68614;SDS011;55593;51.994;5.882;2023-05-16T06:06:05;19.35;;;3.13;;
68614;SDS011;55593;51.994;5.882;2023-05-16T06:08:37;15.50;;;2.95;;
68614;SDS011;55593;51.994;5.882;2023-05-16T06:11:06;16.95;;;3.28;;
68614;SDS011;55593;51.994;5.882;2023-05-16T06:13:35;19.75;;;4.22;;
68614;SDS011;55593;51.994;5.882;2023-05-16T06:16:05;18.02;;;3.92;;
68614;SDS011;55593;51.994;5.882;2023-05-16T06:18:34;14.13;;;3.20;;
68614;SDS011;55593;51.994;5.882;2023-05-16T06:21:03;13.20;;;2.47;;
68614;SDS011;55593;51.994;5.882;2023-05-16T06:23:33;16.75;;;2.42;;
68614;SDS011;55593;51.994;5.882;2023-05-16T06:26:05;18.17;;;3.30;;
68614;SDS011;55593;51.994;5.882;2023-05-16T06:28:34;21.25;;;4.35;;
68614;SDS011;55593;51.994;5.882;2023-05-16T06:31:03;20.30;;;3.85;;
68614;SDS011;55593;51.994;5.882;2023-05-16T06:33:32;19.63;;;3.80;;
68614;SDS011;55593;51.994;5.882;2023-05-16T06:36:02;19.15;;;4.10;;
68614;SDS011;55593;51.994;5.882;2023-05-16T06:38:31;21.20;;;3.33;;
68614;SDS011;55593;51.994;5.882;2023-05-16T06:41:00;13.18;;;3.17;;
68614;SDS011;55593;51.994;5.882;2023-05-16T06:43:32;14.85;;;3.25;;
68614;SDS011;55593;51.994;5.882;2023-05-16T06:46:02;10.60;;;2.40;;
68614;SDS011;55593;51.994;5.882;2023-05-16T06:48:31;17.50;;;4.55;;
68614;SDS011;55593;51.994;5.882;2023-05-16T06:51:01;15.82;;;3.30;;
68614;SDS011;55593;51.994;5.882;2023-05-16T06:53:31;15.13;;;3.20;;
68614;SDS011;55593;51.994;5.882;2023-05-16T06:56:00;18.40;;;3.28;;
68614;SDS011;55593;51.994;5.882;2023-05-16T06:58:29;15.25;;;3.20;;
68614;SDS011;55593;51.994;5.882;2023-05-16T07:01:01;25.42;;;3.35;;
68614;SDS011;55593;51.994;5.882;2023-05-16T07:03:30;14.95;;;3.33;;
68614;SDS011;55593;51.994;5.882;2023-05-16T07:05:59;13.73;;;2.97;;
68614;SDS011;55593;51.994;5.882;2023-05-16T07:08:28;13.57;;;2.47;;
68614;SDS011;55593;51.994;5.882;2023-05-16T07:10:57;16.38;;;2.70;;
68614;SDS011;55593;51.994;5.882;2023-05-16T07:13:26;20.88;;;3.22;;
68614;SDS011;55593;51.994;5.882;2023-05-16T07:15:56;13.93;;;2.53;;
68614;SDS011;55593;51.994;5.882;2023-05-16T07:18:27;15.80;;;2.70;;
68614;SDS011;55593;51.994;5.882;2023-05-16T07:20:57;10.88;;;1.92;;
68614;SDS011;55593;51.994;5.882;2023-05-16T07:23:26;11.52;;;1.77;;
68614;SDS011;55593;51.994;5.882;2023-05-16T07:25:55;13.65;;;2.17;;
68614;SDS011;55593;51.994;5.882;2023-05-16T07:28:24;9.35;;;2.75;;
68614;SDS011;55593;51.994;5.882;2023-05-16T07:30:53;9.00;;;2.22;;
68614;SDS011;55593;51.994;5.882;2023-05-16T07:33:23;12.18;;;2.50;;
68614;SDS011;55593;51.994;5.882;2023-05-16T07:35:55;10.50;;;1.80;;
68614;SDS011;55593;51.994;5.882;2023-05-16T07:38:24;11.52;;;2.15;;
68614;SDS011;55593;51.994;5.882;2023-05-16T07:40:53;11.63;;;1.70;;
68614;SDS011;55593;51.994;5.882;2023-05-16T07:43:22;9.00;;;1.65;;
68614;SDS011;55593;51.994;5.882;2023-05-16T07:45:51;10.13;;;1.85;;
68614;SDS011;55593;51.994;5.882;2023-05-16T07:48:21;5.97;;;1.20;;
68614;SDS011;55593;51.994;5.882;2023-05-16T07:50:50;11.93;;;2.00;;
68614;SDS011;55593;51.994;5.882;2023-05-16T07:53:22;6.88;;;1.30;;
68614;SDS011;55593;51.994;5.882;2023-05-16T07:55:51;15.93;;;2.33;;
68614;SDS011;55593;51.994;5.882;2023-05-16T07:58:21;12.05;;;1.52;;
68614;SDS011;55593;51.994;5.882;2023-05-16T08:00:50;12.30;;;1.77;;
68614;SDS011;55593;51.994;5.882;2023-05-16T08:03:19;9.77;;;1.77;;
68614;SDS011;55593;51.994;5.882;2023-05-16T08:05:48;9.38;;;1.52;;
68614;SDS011;55593;51.994;5.882;2023-05-16T08:08:17;10.20;;;1.92;;
68614;SDS011;55593;51.994;5.882;2023-05-16T08:10:49;14.20;;;2.25;;
68614;SDS011;55593;51.994;5.882;2023-05-16T08:13:18;7.03;;;1.45;;
68614;SDS011;55593;51.994;5.882;2023-05-16T08:15:47;7.35;;;1.73;;
68614;SDS011;55593;51.994;5.882;2023-05-16T08:18:16;8.10;;;1.73;;
68614;SDS011;55593;51.994;5.882;2023-05-16T08:20:45;9.02;;;2.00;;
68614;SDS011;55593;51.994;5.882;2023-05-16T08:23:14;9.63;;;1.90;;
68614;SDS011;55593;51.994;5.882;2023-05-16T08:25:44;9.20;;;1.40;;
68614;SDS011;55593;51.994;5.882;2023-05-16T08:28:15;12.27;;;3.00;;
68614;SDS011;55593;51.994;5.882;2023-05-16T08:30:44;9.18;;;1.67;;
68614;SDS011;55593;51.994;5.882;2023-05-16T08:33:13;11.18;;;2.45;;
68614;SDS011;55593;51.994;5.882;2023-05-16T08:35:43;11.18;;;1.83;;
68614;SDS011;55593;51.994;5.882;2023-05-16T08:38:14;5.57;;;1.45;;
68614;SDS011;55593;51.994;5.882;2023-05-16T08:40:43;5.80;;;1.50;;
68614;SDS011;55593;51.994;5.882;2023-05-16T08:43:12;4.80;;;2.05;;
68614;SDS011;55593;51.994;5.882;2023-05-16T08:45:44;5.88;;;1.73;;
68614;SDS011;55593;51.994;5.882;2023-05-16T08:48:13;5.13;;;1.20;;
68614;SDS011;55593;51.994;5.882;2023-05-16T08:50:43;2.97;;;1.08;;
68614;SDS011;55593;51.994;5.882;2023-05-16T08:53:13;7.05;;;1.10;;
68614;SDS011;55593;51.994;5.882;2023-05-16T08:55:45;4.53;;;1.15;;
68614;SDS011;55593;51.994;5.882;2023-05-16T08:58:16;7.63;;;1.33;;
68614;SDS011;55593;51.994;5.882;2023-05-16T09:00:48;7.38;;;1.63;;
68614;SDS011;55593;51.994;5.882;2023-05-16T09:03:17;9.43;;;1.25;;
68614;SDS011;55593;51.994;5.882;2023-05-16T09:05:48;8.20;;;2.35;;
68614;SDS011;55593;51.994;5.882;2023-05-16T09:08:17;5.05;;;1.38;;
68614;SDS011;55593;51.994;5.882;2023-05-16T09:10:46;4.25;;;1.00;;
68614;SDS011;55593;51.994;5.882;2023-05-16T09:13:15;8.90;;;1.30;;
68614;SDS011;55593;51.994;5.882;2023-05-16T09:15:44;8.57;;;1.40;;
68614;SDS011;55593;51.994;5.882;2023-05-16T09:18:16;5.30;;;1.33;;
68614;SDS011;55593;51.994;5.882;2023-05-16T09:20:45;5.57;;;1.75;;
68614;SDS011;55593;51.994;5.882;2023-05-16T09:23:22;8.57;;;1.92;;
68614;SDS011;55593;51.994;5.882;2023-05-16T09:25:52;5.68;;;1.50;;
68614;SDS011;55593;51.994;5.882;2023-05-16T09:28:21;6.25;;;1.40;;
68614;SDS011;55593;51.994;5.882;2023-05-16T09:30:51;11.55;;;1.67;;
68614;SDS011;55593;51.994;5.882;2023-05-16T09:33:26;5.72;;;1.55;;
68614;SDS011;55593;51.994;5.882;2023-05-16T09:35:57;11.88;;;1.55;;
68614;SDS011;55593;51.994;5.882;2023-05-16T09:38:26;7.40;;;1.40;;
68614;SDS011;55593;51.994;5.882;2023-05-16T09:40:56;17.13;;;2.28;;
68614;SDS011;55593;51.994;5.882;2023-05-16T09:43:25;10.00;;;1.85;;
68614;SDS011;55593;51.994;5.882;2023-05-16T09:45:55;4.78;;;1.20;;
68614;SDS011;55593;51.994;5.882;2023-05-16T09:48:29;6.35;;;1.83;;
68614;SDS011;55593;51.994;5.882;2023-05-16T09:51:00;6.60;;;1.77;;
68614;SDS011;55593;51.994;5.882;2023-05-16T09:53:30;7.10;;;1.63;;
68614;SDS011;55593;51.994;5.882;2023-05-16T09:56:00;6.95;;;1.95;;
68614;SDS011;55593;51.994;5.882;2023-05-16T09:58:30;12.65;;;1.58;;
68614;SDS011;55593;51.994;5.882;2023-05-16T10:01:00;10.10;;;1.30;;
68614;SDS011;55593;51.994;5.882;2023-05-16T10:03:33;9.77;;;1.52;;
68614;SDS011;55593;51.994;5.882;2023-05-16T10:06:03;8.18;;;2.00;;
68614;SDS011;55593;51.994;5.882;2023-05-16T10:08:33;10.52;;;1.98;;
68614;SDS011;55593;51.994;5.882;2023-05-16T10:11:04;8.35;;;1.38;;
68614;SDS011;55593;51.994;5.882;2023-05-16T10:13:34;9.90;;;1.88;;
68614;SDS011;55593;51.994;5.882;2023-05-16T10:16:05;6.57;;;1.80;;
68614;SDS011;55593;51.994;5.882;2023-05-16T10:18:38;9.93;;;1.77;;
68614;SDS011;55593;51.994;5.882;2023-05-16T10:21:09;5.35;;;1.48;;
68614;SDS011;55593;51.994;5.882;2023-05-16T10:23:40;6.10;;;1.35;;
68614;SDS011;55593;51.994;5.882;2023-05-16T10:26:10;9.48;;;1.98;;
68614;SDS011;55593;51.994;5.882;2023-05-16T10:28:40;6.88;;;1.20;;
68614;SDS011;55593;51.994;5.882;2023-05-16T10:31:09;10.05;;;1.63;;
68614;SDS011;55593;51.994;5.882;2023-05-16T10:33:42;8.10;;;1.58;;
68614;SDS011;55593;51.994;5.882;2023-05-16T10:36:11;5.82;;;1.55;;
68614;SDS011;55593;51.994;5.882;2023-05-16T10:38:41;11.23;;;1.60;;
68614;SDS011;55593;51.994;5.882;2023-05-16T10:41:13;8.80;;;2.10;;
68614;SDS011;55593;51.994;5.882;2023-05-16T10:43:43;7.65;;;1.85;;
68614;SDS011;55593;51.994;5.882;2023-05-16T10:46:13;6.78;;;1.30;;
68614;SDS011;55593;51.994;5.882;2023-05-16T10:48:45;7.70;;;1.52;;
68614;SDS011;55593;51.994;5.882;2023-05-16T10:54:04;7.63;;;1.60;;
68614;SDS011;55593;51.994;5.882;2023-05-16T10:56:35;9.60;;;1.67;;
68614;SDS011;55593;51.994;5.882;2023-05-16T10:59:06;7.30;;;1.50;;
68614;SDS011;55593;51.994;5.882;2023-05-16T11:01:54;7.68;;;2.45;;
68614;SDS011;55593;51.994;5.882;2023-05-16T11:04:27;8.43;;;1.75;;
68614;SDS011;55593;51.994;5.882;2023-05-16T11:07:13;10.18;;;2.00;;
68614;SDS011;55593;51.994;5.882;2023-05-16T11:09:45;6.95;;;1.80;;
68614;SDS011;55593;51.994;5.882;2023-05-16T11:12:14;5.50;;;1.30;;
68614;SDS011;55593;51.994;5.882;2023-05-16T11:14:43;9.23;;;1.73;;
68614;SDS011;55593;51.994;5.882;2023-05-16T11:17:19;7.40;;;1.90;;
68614;SDS011;55593;51.994;5.882;2023-05-16T11:19:54;9.50;;;1.77;;
68614;SDS011;55593;51.994;5.882;2023-05-16T11:22:25;6.65;;;1.30;;
68614;SDS011;55593;51.994;5.882;2023-05-16T11:24:56;6.05;;;1.30;;
68614;SDS011;55593;51.994;5.882;2023-05-16T11:27:28;6.85;;;1.45;;
68614;SDS011;55593;51.994;5.882;2023-05-16T11:29:59;6.68;;;1.35;;
68614;SDS011;55593;51.994;5.882;2023-05-16T11:32:30;6.22;;;1.42;;
68614;SDS011;55593;51.994;5.882;2023-05-16T11:35:04;4.97;;;1.27;;
68614;SDS011;55593;51.994;5.882;2023-05-16T11:37:34;8.82;;;1.58;;
68614;SDS011;55593;51.994;5.882;2023-05-16T11:40:04;7.60;;;1.70;;
68614;SDS011;55593;51.994;5.882;2023-05-16T11:42:36;5.90;;;1.52;;
68614;SDS011;55593;51.994;5.882;2023-05-16T11:45:06;6.78;;;1.48;;
68614;SDS011;55593;51.994;5.882;2023-05-16T11:47:37;7.13;;;1.85;;
68614;SDS011;55593;51.994;5.882;2023-05-16T11:50:10;10.05;;;2.10;;
68614;SDS011;55593;51.994;5.882;2023-05-16T11:52:42;8.13;;;2.15;;
68614;SDS011;55593;51.994;5.882;2023-05-16T11:55:13;9.13;;;2.10;;
68614;SDS011;55593;51.994;5.882;2023-05-16T11:57:43;6.90;;;1.65;;
68614;SDS011;55593;51.994;5.882;2023-05-16T12:00:13;11.35;;;1.95;;
68614;SDS011;55593;51.994;5.882;2023-05-16T12:02:44;9.68;;;1.60;;
68614;SDS011;55593;51.994;5.882;2023-05-16T12:05:16;9.80;;;1.67;;
68614;SDS011;55593;51.994;5.882;2023-05-16T12:10:19;4.22;;;1.40;;
68614;SDS011;55593;51.994;5.882;2023-05-16T12:12:49;11.15;;;1.70;;
68614;SDS011;55593;51.994;5.882;2023-05-16T12:15:20;6.30;;;1.90;;
68614;SDS011;55593;51.994;5.882;2023-05-16T12:17:49;9.70;;;1.67;;
68614;SDS011;55593;51.994;5.882;2023-05-16T12:20:21;7.22;;;1.60;;
68614;SDS011;55593;51.994;5.882;2023-05-16T12:22:51;6.07;;;1.95;;
68614;SDS011;55593;51.994;5.882;2023-05-16T12:25:21;5.93;;;1.50;;
68614;SDS011;55593;51.994;5.882;2023-05-16T12:27:51;7.22;;;1.92;;
68614;SDS011;55593;51.994;5.882;2023-05-16T12:30:21;7.03;;;1.73;;
68614;SDS011;55593;51.994;5.882;2023-05-16T12:32:54;8.30;;;2.20;;
68614;SDS011;55593;51.994;5.882;2023-05-16T12:35:28;5.75;;;1.58;;
68614;SDS011;55593;51.994;5.882;2023-05-16T12:37:58;6.57;;;1.40;;
68614;SDS011;55593;51.994;5.882;2023-05-16T12:40:27;8.27;;;1.65;;
68614;SDS011;55593;51.994;5.882;2023-05-16T12:42:57;6.25;;;1.60;;
68614;SDS011;55593;51.994;5.882;2023-05-16T12:45:27;5.38;;;1.40;;
68614;SDS011;55593;51.994;5.882;2023-05-16T12:47:56;6.90;;;2.10;;
68614;SDS011;55593;51.994;5.882;2023-05-16T12:50:28;8.15;;;1.77;;
68614;SDS011;55593;51.994;5.882;2023-05-16T12:52:57;10.70;;;3.47;;
68614;SDS011;55593;51.994;5.882;2023-05-16T12:55:27;7.25;;;1.30;;
68614;SDS011;55593;51.994;5.882;2023-05-16T12:57:57;9.25;;;1.75;;
68614;SDS011;55593;51.994;5.882;2023-05-16T13:00:28;7.72;;;1.65;;
68614;SDS011;55593;51.994;5.882;2023-05-16T13:02:58;8.57;;;1.60;;
68614;SDS011;55593;51.994;5.882;2023-05-16T13:05:30;12.73;;;2.38;;
68614;SDS011;55593;51.994;5.882;2023-05-16T13:08:00;6.88;;;1.65;;
68614;SDS011;55593;51.994;5.882;2023-05-16T13:10:29;8.88;;;1.70;;
68614;SDS011;55593;51.994;5.882;2023-05-16T13:12:58;6.68;;;1.40;;
68614;SDS011;55593;51.994;5.882;2023-05-16T13:15:29;12.45;;;1.90;;
68614;SDS011;55593;51.994;5.882;2023-05-16T13:17:58;7.25;;;1.52;;
68614;SDS011;55593;51.994;5.882;2023-05-16T13:20:30;4.97;;;1.60;;
68614;SDS011;55593;51.994;5.882;2023-05-16T13:22:59;5.57;;;1.30;;
68614;SDS011;55593;51.994;5.882;2023-05-16T13:25:29;5.85;;;1.10;;
68614;SDS011;55593;51.994;5.882;2023-05-16T13:27:58;5.57;;;1.27;;
68614;SDS011;55593;51.994;5.882;2023-05-16T13:30:27;7.90;;;1.50;;
68614;SDS011;55593;51.994;5.882;2023-05-16T13:32:56;7.53;;;2.08;;
68614;SDS011;55593;51.994;5.882;2023-05-16T13:35:26;7.63;;;1.48;;
68614;SDS011;55593;51.994;5.882;2023-05-16T13:37:57;6.15;;;1.77;;
68614;SDS011;55593;51.994;5.882;2023-05-16T13:40:27;6.55;;;1.80;;
68614;SDS011;55593;51.994;5.882;2023-05-16T13:42:56;9.32;;;1.60;;
68614;SDS011;55593;51.994;5.882;2023-05-16T13:45:26;11.52;;;2.10;;
68614;SDS011;55593;51.994;5.882;2023-05-16T13:47:59;9.50;;;1.92;;
68614;SDS011;55593;51.994;5.882;2023-05-16T13:50:28;12.18;;;2.10;;
68614;SDS011;55593;51.994;5.882;2023-05-16T13:53:01;6.25;;;1.88;;
68614;SDS011;55593;51.994;5.882;2023-05-16T13:55:30;8.77;;;2.17;;
68614;SDS011;55593;51.994;5.882;2023-05-16T13:57:59;7.50;;;2.30;;
68614;SDS011;55593;51.994;5.882;2023-05-16T14:00:28;7.97;;;2.20;;
68614;SDS011;55593;51.994;5.882;2023-05-16T14:02:57;5.50;;;1.77;;
68614;SDS011;55593;51.994;5.882;2023-05-16T14:05:27;8.13;;;1.83;;
68614;SDS011;55593;51.994;5.882;2023-05-16T14:07:56;6.20;;;1.58;;
68614;SDS011;55593;51.994;5.882;2023-05-16T14:10:28;11.32;;;2.28;;
68614;SDS011;55593;51.994;5.882;2023-05-16T14:12:57;9.80;;;2.05;;
68614;SDS011;55593;51.994;5.882;2023-05-16T14:15:26;5.75;;;1.75;;
68614;SDS011;55593;51.994;5.882;2023-05-16T14:17:55;6.72;;;2.10;;
68614;SDS011;55593;51.994;5.882;2023-05-16T14:20:24;6.65;;;2.25;;
68614;SDS011;55593;51.994;5.882;2023-05-16T14:22:53;6.55;;;1.60;;
68614;SDS011;55593;51.994;5.882;2023-05-16T14:25:22;10.65;;;2.25;;
68614;SDS011;55593;51.994;5.882;2023-05-16T14:27:54;6.25;;;1.63;;
68614;SDS011;55593;51.994;5.882;2023-05-16T14:30:23;11.13;;;2.38;;
68614;SDS011;55593;51.994;5.882;2023-05-16T14:32:52;18.10;;;2.70;;
68614;SDS011;55593;51.994;5.882;2023-05-16T14:35:23;9.20;;;1.90;;
68614;SDS011;55593;51.994;5.882;2023-05-16T14:37:52;6.60;;;2.30;;
68614;SDS011;55593;51.994;5.882;2023-05-16T14:40:22;9.18;;;2.10;;
68614;SDS011;55593;51.994;5.882;2023-05-16T14:42:53;5.80;;;1.58;;
68614;SDS011;55593;51.994;5.882;2023-05-16T14:45:23;6.65;;;1.77;;
68614;SDS011;55593;51.994;5.882;2023-05-16T14:47:52;6.80;;;1.73;;
68614;SDS011;55593;51.994;5.882;2023-05-16T14:50:21;10.45;;;1.92;;
68614;SDS011;55593;51.994;5.882;2023-05-16T14:52:50;10.70;;;2.88;;
68614;SDS011;55593;51.994;5.882;2023-05-16T14:55:20;8.70;;;2.33;;
68614;SDS011;55593;51.994;5.882;2023-05-16T14:57:49;9.90;;;1.98;;
68614;SDS011;55593;51.994;5.882;2023-05-16T15:00:24;8.82;;;1.98;;
68614;SDS011;55593;51.994;5.882;2023-05-16T15:02:53;7.35;;;2.15;;